Flight Track Log - Related Links

Times and Time Zones

All times are in EDT time to prevent confusion due to time zone crossing. See the IBE488 flight status page for this flight to view local times or setup timezone preferences in your user account.

Time Position Orientation Groundspeed Altitude Reporting Facility
EDT Latitude Longitude Course Direction KTS MPH feet Rate Location/Type
Sun 06:26:00 AM 42.1141 -4.8343 330° Northwest  Level Estimated
Sun 06:27:00 AM 42.1947 -4.8994 329° Northwest  Level Estimated
Sun 06:28:00 AM 42.2753 -4.9646 329° Northwest  Level Estimated
Sun 06:29:00 AM 42.3559 -5.0300 329° Northwest  Level Estimated
Sun 06:30:00 AM 42.4364 -5.0956 329° Northwest  Level Estimated
Sun 06:31:00 AM 42.5169 -5.1613 329° Northwest  Level Estimated
Sun 06:32:00 AM 42.5974 -5.2272 329° Northwest  Level Estimated
Sun 06:33:00 AM 42.6778 -5.2933 329° Northwest  Level Estimated
Sun 06:34:00 AM 42.7582 -5.3595 329° Northwest  Level Estimated
Sun 06:35:00 AM 42.8386 -5.4259 329° Northwest  Level Estimated
Sun 06:36:00 AM 42.9189 -5.4925 329° Northwest  Level Estimated
Sun 06:37:00 AM 42.9992 -5.5593 329° Northwest  Level Estimated
Sun 06:38:00 AM 43.0794 -5.6262 329° Northwest  Level Estimated
Sun 06:39:00 AM 43.1596 -5.6933 329° Northwest  Level Estimated
Sun 06:40:00 AM 43.2398 -5.7606 329° Northwest  Level Estimated
Sun 06:41:00 AM 43.3199 -5.8281 329° Northwest  Level Estimated
Sun 06:42:00 AM 43.4000 -5.8958 328° Northwest  Level Estimated
Sun 06:43:00 AM 43.4800 -5.9636 328° Northwest  Level Estimated
Sun 06:44:00 AM 43.5600 -6.0316 328° Northwest  Level Estimated
Sun 06:45:00 AM 43.5636 -6.0346 328° Northwest  Level Estimated
Sun 06:46:00 AM 43.5636 -6.0346 206° Southwest  Level Estimated
Sun 06:47:00 AM 43.5636 -6.0346 206° Southwest  Level Estimated
Sun 06:48:00 AM 43.5636 -6.0346 206° Southwest  Level Estimated
Sun 06:49:00 AM 43.5636 -6.0346 206° Southwest  Level Estimated
Sun 06:50:00 AM 43.5636 -6.0346 206° Southwest  Level Estimated
Sun 06:51:00 AM 43.5636 -6.0346 206° Southwest  Level Estimated
Sun 06:52:00 AM 43.5636 -6.0346 206° Southwest  Level Estimated
Sun 06:53:00 AM 43.5636 -6.0346 206° Southwest  Level Estimated
Sun 06:54:00 AM 43.5636 -6.0346 206° Southwest  Level Estimated
Sun 06:55:00 AM 43.5636 -6.0346 206° Southwest  Level Estimated
Sun 06:56:00 AM 43.5636 -6.0346 206° Southwest  Level Estimated
Sun 06:57:00 AM 43.5636 -6.0346 206° Southwest  Level Estimated
Sun 06:58:00 AM 43.5636 -6.0346 206° Southwest  Level Estimated
Sun 06:59:00 AM 43.5636 -6.0346 206° Southwest  Level Estimated
Sun 07:00:00 AM 43.5636 -6.0346 206° Southwest  Level Estimated

Login

Don't have an account? Register now (free) for customized features, flight alerts, and more!